createdAt,value
2018-08-04T00:00:56.461Z,0.00
2018-08-04T00:01:56.427Z,0.00
2018-08-04T00:02:56.266Z,0.00
2018-08-04T00:03:56.176Z,0.00
2018-08-04T00:04:56.083Z,0.00
2018-08-04T00:05:55.993Z,0.00
2018-08-04T00:06:55.901Z,0.00
2018-08-04T00:07:55.811Z,0.00
2018-08-04T00:08:55.724Z,0.00
2018-08-04T00:09:55.630Z,0.00
2018-08-04T00:10:55.538Z,0.00
2018-08-04T00:11:55.462Z,0.00
2018-08-04T00:12:55.345Z,0.00
2018-08-04T00:13:55.253Z,0.00
2018-08-04T00:14:55.163Z,0.00
2018-08-04T00:15:55.072Z,0.00
2018-08-04T00:16:54.981Z,0.00
2018-08-04T00:17:54.890Z,0.00
2018-08-04T00:18:54.800Z,0.00
2018-08-04T00:19:54.708Z,0.00
2018-08-04T00:20:54.619Z,0.00
2018-08-04T00:21:54.526Z,0.00
2018-08-04T00:22:54.425Z,0.00
2018-08-04T00:23:54.345Z,0.00
2018-08-04T00:24:54.242Z,0.00
2018-08-04T00:25:54.152Z,0.00
2018-08-04T00:26:54.061Z,0.00
2018-08-04T00:27:53.970Z,0.00
2018-08-04T00:28:53.878Z,0.00
2018-08-04T00:29:53.788Z,0.00
2018-08-04T00:30:53.697Z,0.00
2018-08-04T00:31:53.595Z,0.00
2018-08-04T00:32:53.503Z,0.00
2018-08-04T00:33:53.412Z,0.00
2018-08-04T00:34:53.321Z,0.00
2018-08-04T00:35:53.230Z,0.00
2018-08-04T00:36:53.140Z,0.00
2018-08-04T00:37:53.048Z,0.00
2018-08-04T00:38:52.958Z,0.00
2018-08-04T00:39:52.866Z,0.00
2018-08-04T00:40:52.777Z,0.00
2018-08-04T00:41:52.676Z,0.00
2018-08-04T00:42:52.582Z,0.00
2018-08-04T00:43:52.491Z,0.00
2018-08-04T00:44:52.400Z,0.00
2018-08-04T00:45:52.313Z,0.00
2018-08-04T00:46:52.219Z,0.00
2018-08-04T00:47:52.129Z,0.00
2018-08-04T00:48:52.037Z,0.00
2018-08-04T00:49:51.947Z,0.00
2018-08-04T00:50:51.849Z,0.00
2018-08-04T00:51:51.752Z,0.00
2018-08-04T00:52:51.662Z,0.00
2018-08-04T00:53:51.570Z,0.00
2018-08-04T00:54:51.481Z,0.00
2018-08-04T00:55:51.389Z,0.00
2018-08-04T00:56:51.299Z,0.00
2018-08-04T00:57:51.212Z,0.00
2018-08-04T00:58:51.118Z,0.00
2018-08-04T00:59:51.014Z,0.00
2018-08-04T01:00:51.173Z,0.00
2018-08-04T01:01:50.832Z,0.00
2018-08-04T01:02:50.750Z,0.00
2018-08-04T01:03:50.651Z,0.00
2018-08-04T01:04:50.562Z,0.00
2018-08-04T01:05:50.469Z,0.00
2018-08-04T01:06:50.377Z,0.00
2018-08-04T01:07:50.277Z,0.00
2018-08-04T01:08:50.184Z,0.00
2018-08-04T01:09:50.092Z,0.00
2018-08-04T01:10:50.004Z,0.00
2018-08-04T01:11:49.911Z,0.00
2018-08-04T01:12:49.820Z,0.00
2018-08-04T01:13:49.730Z,0.00
2018-08-04T01:14:49.630Z,0.00
2018-08-04T01:15:49.536Z,0.00
2018-08-04T01:16:49.444Z,0.00
2018-08-04T01:17:49.357Z,0.00
2018-08-04T01:18:49.263Z,0.00
2018-08-04T01:19:49.172Z,0.00
2018-08-04T01:20:49.081Z,0.00
2018-08-04T01:21:48.992Z,0.00
2018-08-04T01:22:48.889Z,0.00
2018-08-04T01:23:48.796Z,0.00
2018-08-04T01:24:48.706Z,0.00
2018-08-04T01:25:48.628Z,0.00
2018-08-04T01:26:48.525Z,0.00
2018-08-04T01:27:48.433Z,0.00
2018-08-04T01:28:48.343Z,0.00
2018-08-04T01:29:48.242Z,0.00
2018-08-04T01:30:48.162Z,0.00
2018-08-04T01:31:48.058Z,0.00
2018-08-04T01:32:47.967Z,0.00
2018-08-04T01:33:47.876Z,0.00
2018-08-04T01:34:47.785Z,0.00
2018-08-04T01:35:47.695Z,0.00
2018-08-04T01:36:47.604Z,0.00
2018-08-04T01:37:47.501Z,0.00
2018-08-04T01:38:47.410Z,0.00
2018-08-04T01:39:47.319Z,0.00
2018-08-04T01:40:47.228Z,0.00
2018-08-04T01:41:47.137Z,0.00
2018-08-04T01:42:47.056Z,0.00
2018-08-04T01:43:46.958Z,0.00
2018-08-04T01:44:46.854Z,0.00
2018-08-04T01:45:46.762Z,0.00
2018-08-04T01:46:46.675Z,0.00
2018-08-04T01:47:46.582Z,0.00
2018-08-04T01:48:46.489Z,0.00
2018-08-04T01:49:46.399Z,0.00
2018-08-04T01:50:46.309Z,0.00
2018-08-04T01:51:46.219Z,0.00
2018-08-04T01:52:46.115Z,0.00
2018-08-04T01:53:46.110Z,0.00
2018-08-04T01:54:45.933Z,0.00
2018-08-04T01:55:45.848Z,0.00
2018-08-04T01:56:45.751Z,0.00
2018-08-04T01:57:45.659Z,0.00
2018-08-04T01:58:45.558Z,0.00
2018-08-04T01:59:45.466Z,0.00
2018-08-04T02:00:45.375Z,0.00
2018-08-04T02:01:45.286Z,0.00
2018-08-04T02:02:45.196Z,0.00
2018-08-04T02:03:45.106Z,0.00
2018-08-04T02:04:45.011Z,0.00
2018-08-04T02:05:44.909Z,0.00
2018-08-04T02:06:44.817Z,0.00
2018-08-04T02:07:44.726Z,0.00
2018-08-04T02:08:44.636Z,0.00
2018-08-04T02:09:44.544Z,0.00
2018-08-04T02:10:44.454Z,0.00
2018-08-04T02:11:44.366Z,0.00
2018-08-04T02:12:44.260Z,0.00
2018-08-04T02:13:44.175Z,0.00
2018-08-04T02:14:44.078Z,0.00
2018-08-04T02:15:43.989Z,0.00
2018-08-04T02:16:43.909Z,0.00
2018-08-04T02:17:43.806Z,0.00
2018-08-04T02:18:43.705Z,0.00
2018-08-04T02:19:43.612Z,0.00
2018-08-04T02:20:43.520Z,0.00
2018-08-04T02:21:43.431Z,0.00
2018-08-04T02:22:43.339Z,0.00
2018-08-04T02:23:43.248Z,0.00
2018-08-04T02:24:43.146Z,0.00
2018-08-04T02:25:43.054Z,0.00
2018-08-04T02:26:42.964Z,0.00
2018-08-04T02:27:42.872Z,0.00
2018-08-04T02:28:42.781Z,0.00
2018-08-04T02:29:42.691Z,0.00
2018-08-04T02:30:42.602Z,0.00
2018-08-04T02:31:42.501Z,0.00
2018-08-04T02:32:42.407Z,0.00
2018-08-04T02:33:42.315Z,0.00
2018-08-04T02:34:42.225Z,0.00
2018-08-04T02:35:42.133Z,0.00
2018-08-04T02:36:42.031Z,0.00
2018-08-04T02:37:41.940Z,0.00
2018-08-04T02:38:41.849Z,0.00
2018-08-04T02:39:41.757Z,0.00
2018-08-04T02:40:41.967Z,0.00
2018-08-04T02:41:41.578Z,0.00
2018-08-04T02:42:41.486Z,0.00
2018-08-04T02:43:41.382Z,0.00
2018-08-04T02:44:41.297Z,0.00
2018-08-04T02:45:41.200Z,0.00
2018-08-04T02:46:41.112Z,0.00
2018-08-04T02:47:41.018Z,0.00
2018-08-04T02:48:40.916Z,0.00
2018-08-04T02:49:40.827Z,0.00
2018-08-04T02:50:40.983Z,0.00
2018-08-04T02:51:40.643Z,4.00
2018-08-04T02:52:40.554Z,4.00
2018-08-04T02:53:40.461Z,0.00
2018-08-04T02:54:40.359Z,4.00
2018-08-04T02:55:40.267Z,4.00
2018-08-04T02:56:40.178Z,0.00
2018-08-04T02:57:40.085Z,4.00
2018-08-04T02:58:39.994Z,8.00
2018-08-04T02:59:39.892Z,4.00
2018-08-04T03:00:39.800Z,4.00
2018-08-04T03:01:39.710Z,8.00
2018-08-04T03:02:39.618Z,8.00
2018-08-04T03:03:39.534Z,8.00
2018-08-04T03:04:39.428Z,12.00
2018-08-04T03:05:39.333Z,12.00
2018-08-04T03:06:39.244Z,16.00
2018-08-04T03:07:39.177Z,20.00
2018-08-04T03:08:39.119Z,20.00
2018-08-04T03:09:38.974Z,24.00
2018-08-04T03:10:38.868Z,28.00
2018-08-04T03:11:38.777Z,32.00
2018-08-04T03:12:38.685Z,32.00
2018-08-04T03:13:38.595Z,40.00
2018-08-04T03:14:38.504Z,44.00
2018-08-04T03:15:38.404Z,48.00
2018-08-04T03:16:38.313Z,56.00
2018-08-04T03:17:38.219Z,64.00
2018-08-04T03:18:38.132Z,72.00
2018-08-04T03:19:38.039Z,80.00
2018-08-04T03:20:37.935Z,88.00
2018-08-04T03:21:37.851Z,100.00
2018-08-04T03:22:37.752Z,108.00
2018-08-04T03:23:37.662Z,120.00
2018-08-04T03:24:37.571Z,132.00
2018-08-04T03:25:37.469Z,144.00
2018-08-04T03:26:37.377Z,160.00
2018-08-04T03:27:37.286Z,172.00
2018-08-04T03:28:37.203Z,184.00
2018-08-04T03:29:37.105Z,204.00
2018-08-04T03:30:37.014Z,220.00
2018-08-04T03:31:36.911Z,236.00
2018-08-04T03:32:36.819Z,256.00
2018-08-04T03:33:36.728Z,272.00
2018-08-04T03:34:36.651Z,292.00
2018-08-04T03:35:36.784Z,316.00
2018-08-04T03:36:36.444Z,336.00
2018-08-04T03:37:36.355Z,356.00
2018-08-04T03:38:36.262Z,380.00
2018-08-04T03:39:36.170Z,404.00
2018-08-04T03:40:36.068Z,428.00
2018-08-04T03:41:35.978Z,456.00
2018-08-04T03:42:35.886Z,484.00
2018-08-04T03:43:35.798Z,512.00
2018-08-04T03:44:35.704Z,540.00
2018-08-04T03:45:35.601Z,568.00
2018-08-04T03:46:35.511Z,596.00
2018-08-04T03:47:35.419Z,624.00
2018-08-04T03:48:35.331Z,656.00
2018-08-04T03:49:35.238Z,688.00
2018-08-04T03:50:35.147Z,720.00
2018-08-04T03:51:35.045Z,752.00
2018-08-04T03:52:34.953Z,784.00
2018-08-04T03:53:34.866Z,816.00
2018-08-04T03:54:34.771Z,852.00
2018-08-04T03:55:34.667Z,888.00
2018-08-04T03:56:34.578Z,928.00
2018-08-04T03:57:34.486Z,964.00
2018-08-04T03:58:34.396Z,1000.00
2018-08-04T03:59:34.316Z,1044.00
2018-08-04T04:00:34.201Z,1084.00
2018-08-04T04:01:34.111Z,1120.00
2018-08-04T04:02:34.020Z,1160.00
2018-08-04T04:03:33.932Z,1200.00
2018-08-04T04:04:33.827Z,1240.00
2018-08-04T04:05:33.735Z,1280.00
2018-08-04T04:06:33.690Z,1316.00
2018-08-04T04:07:33.553Z,1352.00
2018-08-04T04:08:33.463Z,1396.00
2018-08-04T04:09:33.360Z,1436.00
2018-08-04T04:10:33.269Z,1476.00
2018-08-04T04:11:33.178Z,1516.00
2018-08-04T04:12:33.100Z,1560.00
2018-08-04T04:13:32.997Z,1604.00
2018-08-04T04:14:32.894Z,1640.00
2018-08-04T04:15:32.804Z,1680.00
2018-08-04T04:16:32.712Z,1720.00
2018-08-04T04:17:32.633Z,1760.00
2018-08-04T04:18:32.530Z,1800.00
2018-08-04T04:19:32.426Z,1840.00
2018-08-04T04:20:32.335Z,1880.00
2018-08-04T04:21:32.245Z,1920.00
2018-08-04T04:22:32.154Z,1964.00
2018-08-04T04:23:32.064Z,2008.00
2018-08-04T04:24:31.962Z,2052.00
2018-08-04T04:25:31.869Z,2108.00
2018-08-04T04:26:31.778Z,2188.00
2018-08-04T04:27:31.687Z,2260.00
2018-08-04T04:28:31.598Z,2324.00
2018-08-04T04:29:31.507Z,2388.00
2018-08-04T04:30:31.402Z,2472.00
2018-08-04T04:31:31.313Z,2568.00
2018-08-04T04:32:31.220Z,2648.00
2018-08-04T04:33:31.131Z,2724.00
2018-08-04T04:34:31.039Z,2828.00
2018-08-04T04:35:30.937Z,2952.00
2018-08-04T04:36:30.846Z,3056.00
2018-08-04T04:37:30.754Z,3172.00
2018-08-04T04:38:30.664Z,3328.00
2018-08-04T04:39:30.572Z,3448.00
2018-08-04T04:40:30.735Z,3524.00
2018-08-04T04:41:30.391Z,3584.00
2018-08-04T04:42:30.290Z,3652.00
2018-08-04T04:43:30.197Z,3716.00
2018-08-04T04:44:30.106Z,3780.00
2018-08-04T04:45:30.016Z,3832.00
2018-08-04T04:46:29.924Z,3896.00
2018-08-04T04:47:29.834Z,3956.00
2018-08-04T04:48:29.782Z,4020.00
2018-08-04T04:49:29.652Z,4068.00
2018-08-04T04:50:29.561Z,4116.00
2018-08-04T04:51:29.472Z,4172.00
2018-08-04T04:52:29.381Z,4228.00
2018-08-04T04:53:29.290Z,4296.00
2018-08-04T04:54:29.198Z,4352.00
2018-08-04T04:55:29.155Z,4416.00
2018-08-04T04:56:29.016Z,4492.00
2018-08-04T04:57:28.926Z,4568.00
2018-08-04T04:58:28.835Z,4636.00
2018-08-04T04:59:28.734Z,4716.00
2018-08-04T05:00:28.904Z,4796.00
2018-08-04T05:01:28.563Z,4864.00
2018-08-04T05:02:28.472Z,4920.00
2018-08-04T05:03:28.382Z,4976.00
2018-08-04T05:04:28.298Z,5044.00
2018-08-04T05:05:28.200Z,5104.00
2018-08-04T05:06:28.111Z,5160.00
2018-08-04T05:07:28.019Z,5196.00
2018-08-04T05:08:27.929Z,5216.00
2018-08-04T05:09:27.837Z,5248.00
2018-08-04T05:10:27.746Z,5288.00
2018-08-04T05:11:27.657Z,5356.00
2018-08-04T05:12:27.565Z,5404.00
2018-08-04T05:13:27.474Z,5484.00
2018-08-04T05:14:27.395Z,5560.00
2018-08-04T05:15:27.303Z,5628.00
2018-08-04T05:16:27.214Z,5688.00
2018-08-04T05:17:27.122Z,5740.00
2018-08-04T05:18:27.033Z,5796.00
2018-08-04T05:19:26.940Z,5860.00
2018-08-04T05:20:26.865Z,5920.00
2018-08-04T05:21:26.789Z,5984.00
2018-08-04T05:22:26.680Z,6036.00
2018-08-04T05:23:26.591Z,6076.00
2018-08-04T05:24:26.505Z,6136.00
2018-08-04T05:25:26.425Z,6208.00
2018-08-04T05:26:26.331Z,6264.00
2018-08-04T05:27:26.239Z,6304.00
2018-08-04T05:28:26.148Z,6336.00
2018-08-04T05:29:26.059Z,6372.00
2018-08-04T05:30:26.229Z,6428.00
2018-08-04T05:31:25.889Z,6488.00
2018-08-04T05:32:25.798Z,6536.00
2018-08-04T05:33:25.710Z,6600.00
2018-08-04T05:34:25.632Z,6652.00
2018-08-04T05:35:25.538Z,6696.00
2018-08-04T05:36:25.447Z,6728.00
2018-08-04T05:37:25.432Z,6776.00
2018-08-04T05:38:25.277Z,6808.00
2018-08-04T05:39:25.190Z,6860.00
2018-08-04T05:40:25.097Z,6920.00
2018-08-04T05:41:25.018Z,6984.00
2018-08-04T05:42:24.928Z,7060.00
2018-08-04T05:43:24.907Z,7116.00
2018-08-04T05:44:24.758Z,7176.00
2018-08-04T05:45:24.920Z,7212.00
2018-08-04T05:46:24.588Z,7256.00
2018-08-04T05:47:24.499Z,7284.00
2018-08-04T05:48:24.408Z,7336.00
2018-08-04T05:49:24.323Z,7388.00
2018-08-04T05:50:24.241Z,7444.00
2018-08-04T05:51:24.148Z,7524.00
2018-08-04T05:52:24.070Z,7612.00
2018-08-04T05:53:23.978Z,7700.00
2018-08-04T05:54:23.888Z,7788.00
2018-08-04T05:55:23.809Z,7872.00
2018-08-04T05:56:23.719Z,7920.00
2018-08-04T05:57:23.640Z,7964.00
2018-08-04T05:58:23.552Z,8008.00
2018-08-04T05:59:23.458Z,8064.00
2018-08-04T06:00:23.380Z,8144.00
2018-08-04T06:01:23.291Z,8204.00
2018-08-04T06:02:23.212Z,8312.00
2018-08-04T06:03:23.132Z,8396.00
2018-08-04T06:04:23.030Z,8484.00
2018-08-04T06:05:22.952Z,8556.00
2018-08-04T06:06:22.863Z,8612.00
2018-08-04T06:07:22.782Z,8672.00
2018-08-04T06:08:22.727Z,8744.00
2018-08-04T06:09:22.613Z,8816.00
2018-08-04T06:10:22.526Z,8908.00
2018-08-04T06:11:22.449Z,9032.00
2018-08-04T06:12:22.353Z,9208.00
2018-08-04T06:13:22.263Z,9364.00
2018-08-04T06:14:22.187Z,9364.00
2018-08-04T06:15:22.096Z,9304.00
2018-08-04T06:16:22.016Z,9332.00
2018-08-04T06:17:21.925Z,9384.00
2018-08-04T06:18:21.845Z,9416.00
2018-08-04T06:19:21.755Z,9504.00
2018-08-04T06:20:21.678Z,9588.00
2018-08-04T06:21:21.599Z,9648.00
2018-08-04T06:22:21.507Z,9724.00
2018-08-04T06:23:21.429Z,9792.00
2018-08-04T06:24:21.339Z,9844.00
2018-08-04T06:25:21.262Z,9888.00
2018-08-04T06:26:21.169Z,9936.00
2018-08-04T06:27:21.090Z,10000.00
2018-08-04T06:28:21.058Z,10068.00
2018-08-04T06:29:20.922Z,10156.00
2018-08-04T06:30:20.845Z,10216.00
2018-08-04T06:31:20.754Z,10244.00
2018-08-04T06:32:20.674Z,10328.00
2018-08-04T06:33:20.585Z,10448.00
2018-08-04T06:34:20.505Z,10516.00
2018-08-04T06:35:20.428Z,10564.00
2018-08-04T06:36:20.336Z,10608.00
2018-08-04T06:37:20.258Z,10656.00
2018-08-04T06:38:20.179Z,10764.00
2018-08-04T06:39:20.090Z,10856.00
2018-08-04T06:40:20.011Z,10968.00
2018-08-04T06:41:19.921Z,11084.00
2018-08-04T06:42:19.841Z,11164.00
2018-08-04T06:43:19.763Z,11260.00
2018-08-04T06:44:19.697Z,11352.00
2018-08-04T06:45:19.845Z,11376.00
2018-08-04T06:46:19.520Z,11424.00
2018-08-04T06:47:19.437Z,11460.00
2018-08-04T06:48:19.346Z,11452.00
2018-08-04T06:49:19.268Z,11508.00
2018-08-04T06:50:19.189Z,11600.00
2018-08-04T06:51:19.100Z,11668.00
2018-08-04T06:52:19.021Z,11772.00
2018-08-04T06:53:18.955Z,11912.00
2018-08-04T06:54:18.866Z,12040.00
2018-08-04T06:55:18.774Z,12148.00
2018-08-04T06:56:18.695Z,12152.00
2018-08-04T06:57:18.639Z,12224.00
2018-08-04T06:58:18.607Z,12324.00
2018-08-04T06:59:18.447Z,12368.00
2018-08-04T07:00:18.370Z,12452.00
2018-08-04T07:01:18.292Z,12620.00
2018-08-04T07:02:18.213Z,12684.00
2018-08-04T07:03:18.123Z,12744.00
2018-08-04T07:04:18.042Z,12860.00
2018-08-04T07:05:17.967Z,12948.00
2018-08-04T07:06:17.886Z,13092.00
2018-08-04T07:07:17.796Z,13236.00
2018-08-04T07:08:17.717Z,13344.00
2018-08-04T07:09:17.642Z,13456.00
2018-08-04T07:10:17.561Z,13552.00
2018-08-04T07:11:17.483Z,13728.00
2018-08-04T07:12:17.393Z,13796.00
2018-08-04T07:13:17.313Z,13956.00
2018-08-04T07:14:17.239Z,14108.00
2018-08-04T07:15:17.162Z,14248.00
2018-08-04T07:16:17.074Z,14524.00
2018-08-04T07:17:16.988Z,14688.00
2018-08-04T07:18:16.910Z,14848.00
2018-08-04T07:19:16.831Z,15028.00
2018-08-04T07:20:17.003Z,15136.00
2018-08-04T07:21:16.676Z,15320.00
2018-08-04T07:22:16.586Z,15428.00
2018-08-04T07:23:16.506Z,15516.00
2018-08-04T07:24:16.428Z,15780.00
2018-08-04T07:25:16.349Z,16076.00
2018-08-04T07:26:16.271Z,16312.00
2018-08-04T07:27:16.192Z,16572.00
2018-08-04T07:28:16.102Z,16708.00
2018-08-04T07:29:16.055Z,16820.00
2018-08-04T07:30:15.947Z,16916.00
2018-08-04T07:31:15.867Z,17036.00
2018-08-04T07:32:15.788Z,16972.00
2018-08-04T07:33:15.701Z,16940.00
2018-08-04T07:34:15.664Z,16996.00
2018-08-04T07:35:15.541Z,17196.00
2018-08-04T07:36:15.462Z,17504.00
2018-08-04T07:37:15.384Z,17824.00
2018-08-04T07:38:15.320Z,17984.00
2018-08-04T07:39:15.240Z,18048.00
2018-08-04T07:40:15.149Z,18080.00
2018-08-04T07:41:15.072Z,18176.00
2018-08-04T07:42:14.992Z,18464.00
2018-08-04T07:43:14.906Z,18848.00
2018-08-04T07:44:14.824Z,19328.00
2018-08-04T07:45:14.745Z,19776.00
2018-08-04T07:46:14.673Z,19840.00
2018-08-04T07:47:14.590Z,19904.00
2018-08-04T07:48:14.511Z,20448.00
2018-08-04T07:49:14.498Z,21248.00
2018-08-04T07:50:14.353Z,21472.00
2018-08-04T07:51:14.275Z,18368.00
2018-08-04T07:52:14.185Z,13220.00
2018-08-04T07:53:14.106Z,9920.00
2018-08-04T07:54:14.029Z,9560.00
2018-08-04T07:55:13.949Z,9424.00
2018-08-04T07:56:13.870Z,9392.00
2018-08-04T07:57:13.793Z,9392.00
2018-08-04T07:58:13.702Z,9388.00
2018-08-04T07:59:13.625Z,9336.00
2018-08-04T08:00:13.547Z,9252.00
2018-08-04T08:01:13.468Z,9160.00
2018-08-04T08:02:13.376Z,9064.00
2018-08-04T08:03:13.297Z,8960.00
2018-08-04T08:04:13.233Z,8888.00
2018-08-04T08:05:13.132Z,8848.00
2018-08-04T08:06:13.054Z,8832.00
2018-08-04T08:07:12.973Z,8832.00
2018-08-04T08:08:12.881Z,8836.00
2018-08-04T08:09:12.806Z,8868.00
2018-08-04T08:10:12.713Z,8880.00
2018-08-04T08:11:12.665Z,8888.00
2018-08-04T08:12:12.544Z,8868.00
2018-08-04T08:13:12.465Z,8872.00
2018-08-04T08:14:12.387Z,8864.00
2018-08-04T08:15:12.313Z,8856.00
2018-08-04T08:16:12.220Z,8816.00
2018-08-04T08:17:12.128Z,8764.00
2018-08-04T08:18:12.048Z,8724.00
2018-08-04T08:19:11.958Z,8672.00
2018-08-04T08:20:11.867Z,8620.00
2018-08-04T08:21:11.788Z,8568.00
2018-08-04T08:22:11.699Z,8532.00
2018-08-04T08:23:11.714Z,8488.00
2018-08-04T08:24:11.528Z,8452.00
2018-08-04T08:25:11.449Z,8440.00
2018-08-04T08:26:11.362Z,8444.00
2018-08-04T08:27:11.270Z,8472.00
2018-08-04T08:28:11.193Z,8524.00
2018-08-04T08:29:11.101Z,8580.00
2018-08-04T08:30:11.022Z,8628.00
2018-08-04T08:31:10.935Z,8652.00
2018-08-04T08:32:10.852Z,8656.00
2018-08-04T08:33:10.767Z,8652.00
2018-08-04T08:34:10.671Z,8628.00
2018-08-04T08:35:10.592Z,8616.00
2018-08-04T08:36:10.502Z,8632.00
2018-08-04T08:37:10.424Z,8668.00
2018-08-04T08:38:10.332Z,8752.00
2018-08-04T08:39:10.242Z,8896.00
2018-08-04T08:40:10.164Z,9064.00
2018-08-04T08:41:10.072Z,9232.00
2018-08-04T08:42:09.983Z,9384.00
2018-08-04T08:43:09.904Z,9528.00
2018-08-04T08:44:09.812Z,9684.00
2018-08-04T08:45:09.735Z,9816.00
2018-08-04T08:46:09.644Z,9956.00
2018-08-04T08:47:09.637Z,10064.00
2018-08-04T08:48:09.475Z,10148.00
2018-08-04T08:49:09.383Z,10228.00
2018-08-04T08:50:09.293Z,10308.00
2018-08-04T08:51:09.214Z,10392.00
2018-08-04T08:52:09.125Z,10488.00
2018-08-04T08:53:09.113Z,10584.00
2018-08-04T08:54:09.076Z,10680.00
2018-08-04T08:55:08.865Z,10768.00
2018-08-04T08:56:08.772Z,10860.00
2018-08-04T08:57:08.694Z,11000.00
2018-08-04T08:58:08.604Z,11224.00
2018-08-04T08:59:08.513Z,11988.00
2018-08-04T09:00:08.427Z,17124.00
2018-08-04T09:01:08.344Z,29664.00
2018-08-04T09:02:08.253Z,41184.00
2018-08-04T09:03:08.163Z,45920.00
2018-08-04T09:04:08.084Z,46720.00
2018-08-04T09:05:07.993Z,46976.00
2018-08-04T09:06:07.904Z,47712.00
2018-08-04T09:07:07.824Z,48096.00
2018-08-04T09:08:07.733Z,46272.00
2018-08-04T09:09:07.655Z,46528.00
2018-08-04T09:10:07.565Z,47168.00
2018-08-04T09:11:07.487Z,47712.00
2018-08-04T09:12:07.399Z,48224.00
2018-08-04T09:13:07.316Z,48384.00
2018-08-04T09:14:07.226Z,49184.00
2018-08-04T09:15:07.148Z,49888.00
2018-08-04T09:16:07.070Z,52480.00
2018-08-04T09:17:06.979Z,55712.00
2018-08-04T09:18:06.901Z,54432.00
2018-08-04T09:19:06.821Z,51904.00
2018-08-04T09:20:06.981Z,51168.00
2018-08-04T09:21:06.653Z,53696.00
2018-08-04T09:22:06.574Z,58336.00
2018-08-04T09:23:06.536Z,62240.00
2018-08-04T09:24:06.418Z,61760.00
2018-08-04T09:25:06.341Z,61952.00
2018-08-04T09:26:06.249Z,63168.00
2018-08-04T09:27:06.170Z,62720.00
2018-08-04T09:28:06.104Z,63552.00
2018-08-04T09:29:06.013Z,62176.00
2018-08-04T09:30:05.935Z,60448.00
2018-08-04T09:31:05.856Z,57504.00
2018-08-04T09:32:05.778Z,54720.00
2018-08-04T09:33:05.700Z,52704.00
2018-08-04T09:34:05.621Z,52192.00
2018-08-04T09:35:05.543Z,51712.00
2018-08-04T09:36:05.465Z,50016.00
2018-08-04T09:37:05.394Z,46624.00
2018-08-04T09:38:05.309Z,45696.00
2018-08-04T09:39:05.282Z,45408.00
2018-08-04T09:40:05.165Z,46080.00
2018-08-04T09:41:05.091Z,46720.00
2018-08-04T09:42:05.008Z,46176.00
2018-08-04T09:43:04.930Z,46912.00
2018-08-04T09:44:04.852Z,48096.00
2018-08-04T09:45:04.773Z,48576.00
2018-08-04T09:46:04.696Z,50368.00
2018-08-04T09:47:04.617Z,51200.00
2018-08-04T09:48:04.548Z,51360.00
2018-08-04T09:49:04.472Z,51040.00
2018-08-04T09:50:04.393Z,51168.00
2018-08-04T09:51:04.320Z,51232.00
2018-08-04T09:52:04.236Z,51648.00
2018-08-04T09:53:04.159Z,49696.00
2018-08-04T09:54:04.080Z,48064.00
2018-08-04T09:55:04.016Z,50240.00
2018-08-04T09:56:03.936Z,48480.00
2018-08-04T09:57:03.860Z,48800.00
2018-08-04T09:58:03.782Z,50048.00
2018-08-04T09:59:03.702Z,50592.00
2018-08-04T10:00:03.936Z,50464.00
2018-08-04T10:01:03.561Z,50528.00
2018-08-04T10:02:03.479Z,50272.00
2018-08-04T10:03:03.400Z,50432.00
2018-08-04T10:04:03.335Z,50304.00
2018-08-04T10:05:03.266Z,49632.00
2018-08-04T10:06:03.178Z,50016.00
2018-08-04T10:07:03.101Z,50144.00
2018-08-04T10:08:03.034Z,50464.00
2018-08-04T10:09:02.957Z,49952.00
2018-08-04T10:10:02.878Z,50560.00
2018-08-04T10:11:02.812Z,49856.00
2018-08-04T10:12:02.735Z,50208.00
2018-08-04T10:13:02.656Z,45280.00
2018-08-04T10:14:02.595Z,41536.00
2018-08-04T10:15:02.511Z,50304.00
2018-08-04T10:16:02.446Z,45408.00
2018-08-04T10:17:02.369Z,63328.00
2018-08-04T10:18:02.293Z,73792.00
2018-08-04T10:19:02.230Z,57152.00
2018-08-04T10:20:02.147Z,69376.00
2018-08-04T10:21:02.079Z,63168.00
2018-08-04T10:22:02.002Z,64768.00
2018-08-04T10:23:01.923Z,61792.00
2018-08-04T10:24:01.856Z,51360.00
2018-08-04T10:25:02.028Z,85088.00
2018-08-04T10:26:01.729Z,110272.00
2018-08-04T10:27:01.634Z,181728.00
2018-08-04T10:28:01.570Z,185760.00
2018-08-04T10:29:01.490Z,168704.00
2018-08-04T10:30:01.412Z,140512.00
2018-08-04T10:31:01.349Z,44704.00
2018-08-04T10:32:01.356Z,42368.00
2018-08-04T10:33:01.202Z,88448.00
2018-08-04T10:34:01.124Z,44000.00
2018-08-04T10:35:01.046Z,40640.00
2018-08-04T10:36:00.980Z,130336.00
2018-08-04T10:37:00.902Z,50432.00
2018-08-04T10:38:00.837Z,126848.00
2018-08-04T10:39:00.759Z,142208.00
2018-08-04T10:40:00.678Z,131648.00
2018-08-04T10:41:00.602Z,83296.00
2018-08-04T10:42:00.535Z,131424.00
2018-08-04T10:43:00.456Z,102240.00
2018-08-04T10:44:00.409Z,54688.00
2018-08-04T10:45:00.312Z,27936.00
2018-08-04T10:46:00.235Z,31776.00
2018-08-04T10:47:00.156Z,46112.00
2018-08-04T10:48:00.090Z,46432.00
2018-08-04T10:49:00.014Z,60768.00
2018-08-04T10:49:59.934Z,64256.00
2018-08-04T10:50:59.874Z,127872.00
2018-08-04T10:51:59.802Z,139040.00
2018-08-04T10:52:59.711Z,138848.00
2018-08-04T10:53:59.632Z,135296.00
2018-08-04T10:54:59.554Z,34176.00
2018-08-04T10:55:59.478Z,38592.00
2018-08-04T10:56:59.468Z,27328.00
2018-08-04T10:57:59.332Z,29536.00
2018-08-04T10:58:59.254Z,20960.00
2018-08-04T10:59:59.176Z,27744.00
2018-08-04T11:00:59.108Z,86528.00
2018-08-04T11:01:59.046Z,61120.00
2018-08-04T11:02:58.956Z,44672.00
2018-08-04T11:03:58.944Z,22528.00
2018-08-04T11:04:58.814Z,25760.00
2018-08-04T11:05:58.730Z,31968.00
2018-08-04T11:06:58.653Z,24064.00
2018-08-04T11:07:58.578Z,23520.00
2018-08-04T11:08:58.496Z,24192.00
2018-08-04T11:09:58.418Z,24896.00
2018-08-04T11:10:58.339Z,26080.00
2018-08-04T11:11:58.261Z,24192.00
2018-08-04T11:12:58.182Z,23904.00
2018-08-04T11:13:58.104Z,26432.00
2018-08-04T11:14:58.027Z,26080.00
2018-08-04T11:15:57.947Z,24928.00
2018-08-04T11:16:57.869Z,26624.00
2018-08-04T11:17:57.793Z,26048.00
2018-08-04T11:18:57.712Z,32864.00
2018-08-04T11:19:57.634Z,29728.00
2018-08-04T11:20:57.556Z,33728.00
2018-08-04T11:21:57.477Z,32992.00
2018-08-04T11:22:57.400Z,46208.00
2018-08-04T11:23:57.321Z,59936.00
2018-08-04T11:24:57.243Z,41568.00
2018-08-04T11:25:57.164Z,25696.00
2018-08-04T11:26:57.091Z,21152.00
2018-08-04T11:27:57.010Z,22016.00
2018-08-04T11:28:56.916Z,22144.00
2018-08-04T11:29:56.838Z,27872.00
2018-08-04T11:30:56.778Z,42336.00
2018-08-04T11:31:56.681Z,55616.00
2018-08-04T11:32:56.603Z,42272.00
2018-08-04T11:33:56.525Z,39616.00
2018-08-04T11:34:56.449Z,40928.00
2018-08-04T11:35:56.368Z,30112.00
2018-08-04T11:36:56.279Z,28384.00
2018-08-04T11:37:56.200Z,28096.00
2018-08-04T11:38:56.121Z,26176.00
2018-08-04T11:39:56.293Z,27200.00
2018-08-04T11:40:55.964Z,24992.00
2018-08-04T11:41:55.886Z,22240.00
2018-08-04T11:42:55.816Z,20480.00
2018-08-04T11:43:55.729Z,19136.00
2018-08-04T11:44:55.639Z,17472.00
2018-08-04T11:45:55.560Z,16428.00
2018-08-04T11:46:55.481Z,16624.00
2018-08-04T11:47:55.403Z,16604.00
2018-08-04T11:48:55.325Z,16120.00
2018-08-04T11:49:55.247Z,16776.00
2018-08-04T11:50:55.157Z,18304.00
2018-08-04T11:51:55.078Z,21152.00
2018-08-04T11:52:55.005Z,25856.00
2018-08-04T11:53:54.926Z,26496.00
2018-08-04T11:54:54.843Z,26144.00
2018-08-04T11:55:54.753Z,26176.00
2018-08-04T11:56:54.675Z,25600.00
2018-08-04T11:57:54.595Z,24448.00
2018-08-04T11:58:54.532Z,22912.00
2018-08-04T11:59:54.438Z,21856.00
2018-08-04T12:00:54.349Z,19968.00
2018-08-04T12:01:54.273Z,18592.00
2018-08-04T12:02:54.191Z,18080.00
2018-08-04T12:03:54.116Z,19136.00
2018-08-04T12:04:54.036Z,22624.00
2018-08-04T12:05:53.943Z,24992.00
2018-08-04T12:06:53.865Z,25312.00
2018-08-04T12:07:53.786Z,25152.00
2018-08-04T12:08:53.728Z,22304.00
2018-08-04T12:09:53.618Z,19296.00
2018-08-04T12:10:53.543Z,18528.00
2018-08-04T12:11:53.462Z,17060.00
2018-08-04T12:12:53.386Z,17408.00
2018-08-04T12:13:53.291Z,46048.00
2018-08-04T12:14:53.213Z,46784.00